sensor_id;sensor_type;location;lat;lon;timestamp;P1;durP1;ratioP1;P2;durP2;ratioP2
35576;SDS011;21680;52.400;16.920;2023-04-25T00:01:05;2.50;;;1.50;;
35576;SDS011;21680;52.400;16.920;2023-04-25T00:03:31;1.70;;;1.40;;
35576;SDS011;21680;52.400;16.920;2023-04-25T00:05:57;2.80;;;1.20;;
35576;SDS011;21680;52.400;16.920;2023-04-25T00:08:27;1.20;;;1.10;;
35576;SDS011;21680;52.400;16.920;2023-04-25T00:10:54;0.90;;;0.90;;
35576;SDS011;21680;52.400;16.920;2023-04-25T00:13:19;1.30;;;1.10;;
35576;SDS011;21680;52.400;16.920;2023-04-25T00:15:45;1.80;;;1.20;;
35576;SDS011;21680;52.400;16.920;2023-04-25T00:18:11;4.20;;;0.90;;
35576;SDS011;21680;52.400;16.920;2023-04-25T00:20:36;2.60;;;1.00;;
35576;SDS011;21680;52.400;16.920;2023-04-25T00:23:02;4.40;;;1.00;;
35576;SDS011;21680;52.400;16.920;2023-04-25T00:25:27;1.30;;;1.20;;
35576;SDS011;21680;52.400;16.920;2023-04-25T00:27:52;1.20;;;0.90;;
35576;SDS011;21680;52.400;16.920;2023-04-25T00:30:17;5.50;;;0.90;;
35576;SDS011;21680;52.400;16.920;2023-04-25T00:32:43;1.80;;;1.10;;
35576;SDS011;21680;52.400;16.920;2023-04-25T00:35:09;1.60;;;1.30;;
35576;SDS011;21680;52.400;16.920;2023-04-25T00:37:34;4.00;;;1.20;;
35576;SDS011;21680;52.400;16.920;2023-04-25T00:40:00;1.20;;;0.90;;
35576;SDS011;21680;52.400;16.920;2023-04-25T00:42:26;2.20;;;1.10;;
35576;SDS011;21680;52.400;16.920;2023-04-25T00:44:52;1.40;;;1.00;;
35576;SDS011;21680;52.400;16.920;2023-04-25T00:47:18;2.20;;;1.30;;
35576;SDS011;21680;52.400;16.920;2023-04-25T00:49:43;2.60;;;1.00;;
35576;SDS011;21680;52.400;16.920;2023-04-25T00:52:09;0.90;;;0.80;;
35576;SDS011;21680;52.400;16.920;2023-04-25T00:54:35;3.70;;;0.80;;
35576;SDS011;21680;52.400;16.920;2023-04-25T00:57:00;4.20;;;1.20;;
35576;SDS011;21680;52.400;16.920;2023-04-25T00:59:26;1.90;;;1.10;;
35576;SDS011;21680;52.400;16.920;2023-04-25T01:01:53;1.70;;;0.90;;
35576;SDS011;21680;52.400;16.920;2023-04-25T01:04:18;1.20;;;1.10;;
35576;SDS011;21680;52.400;16.920;2023-04-25T01:06:43;11.80;;;1.30;;
35576;SDS011;21680;52.400;16.920;2023-04-25T01:09:09;1.80;;;1.10;;
35576;SDS011;21680;52.400;16.920;2023-04-25T01:11:34;1.20;;;1.00;;
35576;SDS011;21680;52.400;16.920;2023-04-25T01:14:00;1.50;;;1.10;;
35576;SDS011;21680;52.400;16.920;2023-04-25T01:16:26;5.00;;;1.10;;
35576;SDS011;21680;52.400;16.920;2023-04-25T01:18:52;2.30;;;1.10;;
35576;SDS011;21680;52.400;16.920;2023-04-25T01:21:19;16.00;;;2.50;;
35576;SDS011;21680;52.400;16.920;2023-04-25T01:23:44;3.30;;;1.50;;
35576;SDS011;21680;52.400;16.920;2023-04-25T01:26:11;2.90;;;1.10;;
35576;SDS011;21680;52.400;16.920;2023-04-25T01:28:37;3.70;;;1.50;;
35576;SDS011;21680;52.400;16.920;2023-04-25T01:31:06;2.10;;;1.20;;
35576;SDS011;21680;52.400;16.920;2023-04-25T01:33:31;3.90;;;1.60;;
35576;SDS011;21680;52.400;16.920;2023-04-25T01:35:57;8.30;;;1.80;;
35576;SDS011;21680;52.400;16.920;2023-04-25T01:38:22;2.40;;;1.50;;
35576;SDS011;21680;52.400;16.920;2023-04-25T01:40:48;7.10;;;2.00;;
35576;SDS011;21680;52.400;16.920;2023-04-25T01:43:15;5.00;;;2.20;;
35576;SDS011;21680;52.400;16.920;2023-04-25T01:45:41;5.00;;;2.70;;
35576;SDS011;21680;52.400;16.920;2023-04-25T01:48:08;3.80;;;1.80;;
35576;SDS011;21680;52.400;16.920;2023-04-25T01:50:34;3.10;;;1.80;;
35576;SDS011;21680;52.400;16.920;2023-04-25T01:52:59;1.80;;;1.70;;
35576;SDS011;21680;52.400;16.920;2023-04-25T01:55:26;6.30;;;2.10;;
35576;SDS011;21680;52.400;16.920;2023-04-25T01:57:51;2.40;;;1.90;;
35576;SDS011;21680;52.400;16.920;2023-04-25T02:00:16;1.80;;;1.60;;
35576;SDS011;21680;52.400;16.920;2023-04-25T02:02:43;2.90;;;1.70;;
35576;SDS011;21680;52.400;16.920;2023-04-25T02:05:08;4.00;;;1.70;;
35576;SDS011;21680;52.400;16.920;2023-04-25T02:07:34;3.00;;;2.00;;
35576;SDS011;21680;52.400;16.920;2023-04-25T02:09:59;3.00;;;2.00;;
35576;SDS011;21680;52.400;16.920;2023-04-25T02:12:24;2.90;;;1.80;;
35576;SDS011;21680;52.400;16.920;2023-04-25T02:14:51;3.00;;;1.60;;
35576;SDS011;21680;52.400;16.920;2023-04-25T02:17:17;3.60;;;2.10;;
35576;SDS011;21680;52.400;16.920;2023-04-25T02:19:43;3.90;;;2.00;;
35576;SDS011;21680;52.400;16.920;2023-04-25T02:22:08;4.60;;;2.20;;
35576;SDS011;21680;52.400;16.920;2023-04-25T02:24:33;2.90;;;2.00;;
35576;SDS011;21680;52.400;16.920;2023-04-25T02:26:59;4.00;;;2.30;;
35576;SDS011;21680;52.400;16.920;2023-04-25T02:29:25;3.30;;;2.00;;
35576;SDS011;21680;52.400;16.920;2023-04-25T02:31:50;3.40;;;2.10;;
35576;SDS011;21680;52.400;16.920;2023-04-25T02:34:15;6.00;;;2.00;;
35576;SDS011;21680;52.400;16.920;2023-04-25T02:36:41;3.80;;;2.40;;
35576;SDS011;21680;52.400;16.920;2023-04-25T02:39:06;4.60;;;2.20;;
35576;SDS011;21680;52.400;16.920;2023-04-25T02:41:31;3.70;;;2.40;;
35576;SDS011;21680;52.400;16.920;2023-04-25T02:43:57;4.60;;;2.30;;
35576;SDS011;21680;52.400;16.920;2023-04-25T02:46:22;3.90;;;2.20;;
35576;SDS011;21680;52.400;16.920;2023-04-25T02:48:47;5.30;;;2.60;;
35576;SDS011;21680;52.400;16.920;2023-04-25T02:51:12;6.00;;;2.80;;
35576;SDS011;21680;52.400;16.920;2023-04-25T02:53:38;4.00;;;2.20;;
35576;SDS011;21680;52.400;16.920;2023-04-25T02:56:04;3.30;;;2.30;;
35576;SDS011;21680;52.400;16.920;2023-04-25T02:58:30;4.50;;;2.50;;
35576;SDS011;21680;52.400;16.920;2023-04-25T03:00:55;6.50;;;2.90;;
35576;SDS011;21680;52.400;16.920;2023-04-25T03:03:20;4.60;;;2.60;;
35576;SDS011;21680;52.400;16.920;2023-04-25T03:05:49;4.20;;;3.00;;
35576;SDS011;21680;52.400;16.920;2023-04-25T03:08:16;5.20;;;2.70;;
35576;SDS011;21680;52.400;16.920;2023-04-25T03:10:42;4.00;;;3.10;;
35576;SDS011;21680;52.400;16.920;2023-04-25T03:13:07;7.90;;;2.90;;
35576;SDS011;21680;52.400;16.920;2023-04-25T03:15:32;10.70;;;3.20;;
35576;SDS011;21680;52.400;16.920;2023-04-25T03:18:00;4.50;;;2.50;;
35576;SDS011;21680;52.400;16.920;2023-04-25T03:20:25;8.00;;;3.10;;
35576;SDS011;21680;52.400;16.920;2023-04-25T03:22:50;10.20;;;3.70;;
35576;SDS011;21680;52.400;16.920;2023-04-25T03:25:16;6.10;;;3.80;;
35576;SDS011;21680;52.400;16.920;2023-04-25T03:27:41;21.00;;;5.50;;
35576;SDS011;21680;52.400;16.920;2023-04-25T03:30:06;9.40;;;4.40;;
35576;SDS011;21680;52.400;16.920;2023-04-25T03:32:33;5.60;;;4.20;;
35576;SDS011;21680;52.400;16.920;2023-04-25T03:34:58;7.50;;;4.50;;
35576;SDS011;21680;52.400;16.920;2023-04-25T03:37:24;7.60;;;4.20;;
35576;SDS011;21680;52.400;16.920;2023-04-25T03:39:49;5.10;;;3.30;;
35576;SDS011;21680;52.400;16.920;2023-04-25T03:42:14;9.10;;;4.70;;
35576;SDS011;21680;52.400;16.920;2023-04-25T03:44:39;9.00;;;4.00;;
35576;SDS011;21680;52.400;16.920;2023-04-25T03:47:05;11.50;;;4.20;;
35576;SDS011;21680;52.400;16.920;2023-04-25T03:49:31;9.30;;;4.20;;
35576;SDS011;21680;52.400;16.920;2023-04-25T03:51:57;5.20;;;4.00;;
35576;SDS011;21680;52.400;16.920;2023-04-25T03:54:23;4.90;;;3.90;;
35576;SDS011;21680;52.400;16.920;2023-04-25T03:56:48;6.20;;;3.50;;
35576;SDS011;21680;52.400;16.920;2023-04-25T03:59:14;6.40;;;3.90;;
35576;SDS011;21680;52.400;16.920;2023-04-25T04:01:39;10.40;;;4.10;;
35576;SDS011;21680;52.400;16.920;2023-04-25T04:04:04;10.90;;;4.40;;
35576;SDS011;21680;52.400;16.920;2023-04-25T04:06:30;5.90;;;4.10;;
35576;SDS011;21680;52.400;16.920;2023-04-25T04:08:55;7.30;;;3.80;;
35576;SDS011;21680;52.400;16.920;2023-04-25T04:11:22;5.10;;;3.80;;
35576;SDS011;21680;52.400;16.920;2023-04-25T04:13:47;7.50;;;5.00;;
35576;SDS011;21680;52.400;16.920;2023-04-25T04:16:12;8.70;;;4.40;;
35576;SDS011;21680;52.400;16.920;2023-04-25T04:18:37;8.80;;;4.20;;
35576;SDS011;21680;52.400;16.920;2023-04-25T04:21:03;6.50;;;4.70;;
35576;SDS011;21680;52.400;16.920;2023-04-25T04:23:28;13.20;;;4.60;;
35576;SDS011;21680;52.400;16.920;2023-04-25T04:25:55;8.00;;;4.50;;
35576;SDS011;21680;52.400;16.920;2023-04-25T04:28:21;10.80;;;4.60;;
35576;SDS011;21680;52.400;16.920;2023-04-25T04:30:47;9.60;;;4.00;;
35576;SDS011;21680;52.400;16.920;2023-04-25T04:33:13;13.30;;;5.00;;
35576;SDS011;21680;52.400;16.920;2023-04-25T04:35:40;7.80;;;4.10;;
35576;SDS011;21680;52.400;16.920;2023-04-25T04:38:06;7.80;;;4.40;;
35576;SDS011;21680;52.400;16.920;2023-04-25T04:40:32;15.90;;;4.80;;
35576;SDS011;21680;52.400;16.920;2023-04-25T04:42:57;11.40;;;4.40;;
35576;SDS011;21680;52.400;16.920;2023-04-25T04:45:22;7.70;;;3.80;;
35576;SDS011;21680;52.400;16.920;2023-04-25T04:47:48;7.10;;;4.20;;
35576;SDS011;21680;52.400;16.920;2023-04-25T04:50:15;14.90;;;5.00;;
35576;SDS011;21680;52.400;16.920;2023-04-25T04:52:41;10.40;;;4.90;;
35576;SDS011;21680;52.400;16.920;2023-04-25T04:55:07;10.60;;;4.80;;
35576;SDS011;21680;52.400;16.920;2023-04-25T04:57:33;11.20;;;4.90;;
35576;SDS011;21680;52.400;16.920;2023-04-25T05:00:00;11.70;;;4.90;;
35576;SDS011;21680;52.400;16.920;2023-04-25T05:02:26;8.60;;;4.50;;
35576;SDS011;21680;52.400;16.920;2023-04-25T05:04:52;12.90;;;4.70;;
35576;SDS011;21680;52.400;16.920;2023-04-25T05:07:17;8.10;;;4.70;;
35576;SDS011;21680;52.400;16.920;2023-04-25T05:09:43;10.30;;;5.00;;
35576;SDS011;21680;52.400;16.920;2023-04-25T05:12:09;4.80;;;3.80;;
35576;SDS011;21680;52.400;16.920;2023-04-25T05:14:34;8.20;;;4.20;;
35576;SDS011;21680;52.400;16.920;2023-04-25T05:17:01;7.80;;;4.70;;
35576;SDS011;21680;52.400;16.920;2023-04-25T05:19:29;8.40;;;4.30;;
35576;SDS011;21680;52.400;16.920;2023-04-25T05:21:55;5.20;;;3.90;;
35576;SDS011;21680;52.400;16.920;2023-04-25T05:24:20;7.00;;;4.20;;
35576;SDS011;21680;52.400;16.920;2023-04-25T05:26:47;7.50;;;4.00;;
35576;SDS011;21680;52.400;16.920;2023-04-25T05:29:12;10.10;;;4.70;;
35576;SDS011;21680;52.400;16.920;2023-04-25T05:31:37;8.80;;;4.30;;
35576;SDS011;21680;52.400;16.920;2023-04-25T05:34:03;7.80;;;4.10;;
35576;SDS011;21680;52.400;16.920;2023-04-25T05:36:28;5.50;;;3.80;;
35576;SDS011;21680;52.400;16.920;2023-04-25T05:38:53;9.80;;;4.10;;
35576;SDS011;21680;52.400;16.920;2023-04-25T05:41:19;12.30;;;4.00;;
35576;SDS011;21680;52.400;16.920;2023-04-25T05:43:45;9.60;;;4.10;;
35576;SDS011;21680;52.400;16.920;2023-04-25T05:46:12;9.00;;;3.90;;
35576;SDS011;21680;52.400;16.920;2023-04-25T05:48:38;5.60;;;3.20;;
35576;SDS011;21680;52.400;16.920;2023-04-25T05:51:04;9.20;;;4.00;;
35576;SDS011;21680;52.400;16.920;2023-04-25T05:53:29;5.40;;;3.50;;
35576;SDS011;21680;52.400;16.920;2023-04-25T05:55:55;5.70;;;3.60;;
35576;SDS011;21680;52.400;16.920;2023-04-25T05:58:21;6.50;;;3.90;;
35576;SDS011;21680;52.400;16.920;2023-04-25T06:00:47;7.40;;;3.50;;
35576;SDS011;21680;52.400;16.920;2023-04-25T06:03:12;8.60;;;3.20;;
35576;SDS011;21680;52.400;16.920;2023-04-25T06:05:43;11.80;;;3.20;;
35576;SDS011;21680;52.400;16.920;2023-04-25T06:08:08;5.60;;;2.80;;
35576;SDS011;21680;52.400;16.920;2023-04-25T06:10:35;6.50;;;3.30;;
35576;SDS011;21680;52.400;16.920;2023-04-25T06:13:01;8.70;;;3.40;;
35576;SDS011;21680;52.400;16.920;2023-04-25T06:15:30;13.40;;;3.30;;
35576;SDS011;21680;52.400;16.920;2023-04-25T06:17:57;18.60;;;4.20;;
35576;SDS011;21680;52.400;16.920;2023-04-25T06:20:23;14.20;;;4.00;;
35576;SDS011;21680;52.400;16.920;2023-04-25T06:22:50;6.10;;;3.30;;
35576;SDS011;21680;52.400;16.920;2023-04-25T06:25:17;15.80;;;3.70;;
35576;SDS011;21680;52.400;16.920;2023-04-25T06:27:43;9.30;;;3.20;;
35576;SDS011;21680;52.400;16.920;2023-04-25T06:30:08;4.40;;;2.70;;
35576;SDS011;21680;52.400;16.920;2023-04-25T06:32:34;7.00;;;3.40;;
35576;SDS011;21680;52.400;16.920;2023-04-25T06:35:00;6.70;;;3.20;;
35576;SDS011;21680;52.400;16.920;2023-04-25T06:37:25;6.80;;;3.60;;
35576;SDS011;21680;52.400;16.920;2023-04-25T06:39:51;6.90;;;3.30;;
35576;SDS011;21680;52.400;16.920;2023-04-25T06:42:16;13.00;;;4.20;;
35576;SDS011;21680;52.400;16.920;2023-04-25T06:44:43;8.90;;;3.20;;
35576;SDS011;21680;52.400;16.920;2023-04-25T06:47:08;10.70;;;3.30;;
35576;SDS011;21680;52.400;16.920;2023-04-25T06:49:33;5.30;;;3.00;;
35576;SDS011;21680;52.400;16.920;2023-04-25T06:51:58;20.90;;;4.10;;
35576;SDS011;21680;52.400;16.920;2023-04-25T06:54:24;15.60;;;3.40;;
35576;SDS011;21680;52.400;16.920;2023-04-25T06:56:50;37.70;;;5.10;;
35576;SDS011;21680;52.400;16.920;2023-04-25T06:59:15;11.10;;;3.60;;
35576;SDS011;21680;52.400;16.920;2023-04-25T07:01:40;9.80;;;3.20;;
35576;SDS011;21680;52.400;16.920;2023-04-25T07:04:06;11.40;;;3.80;;
35576;SDS011;21680;52.400;16.920;2023-04-25T07:06:31;11.50;;;3.70;;
35576;SDS011;21680;52.400;16.920;2023-04-25T07:08:56;10.80;;;3.60;;
35576;SDS011;21680;52.400;16.920;2023-04-25T07:11:21;14.60;;;3.80;;
35576;SDS011;21680;52.400;16.920;2023-04-25T07:13:47;6.90;;;3.20;;
35576;SDS011;21680;52.400;16.920;2023-04-25T07:16:12;13.70;;;4.40;;
35576;SDS011;21680;52.400;16.920;2023-04-25T07:18:37;12.40;;;3.50;;
35576;SDS011;21680;52.400;16.920;2023-04-25T07:21:02;12.00;;;3.90;;
35576;SDS011;21680;52.400;16.920;2023-04-25T07:23:28;11.90;;;3.90;;
35576;SDS011;21680;52.400;16.920;2023-04-25T07:25:53;8.30;;;3.30;;
35576;SDS011;21680;52.400;16.920;2023-04-25T07:28:18;6.20;;;3.20;;
35576;SDS011;21680;52.400;16.920;2023-04-25T07:30:44;5.20;;;2.90;;
35576;SDS011;21680;52.400;16.920;2023-04-25T07:33:09;14.70;;;3.50;;
35576;SDS011;21680;52.400;16.920;2023-04-25T07:35:34;19.00;;;4.20;;
35576;SDS011;21680;52.400;16.920;2023-04-25T07:38:01;6.80;;;3.30;;
35576;SDS011;21680;52.400;16.920;2023-04-25T07:40:27;20.10;;;3.90;;
35576;SDS011;21680;52.400;16.920;2023-04-25T07:42:53;13.00;;;4.10;;
35576;SDS011;21680;52.400;16.920;2023-04-25T07:45:18;9.10;;;3.60;;
35576;SDS011;21680;52.400;16.920;2023-04-25T07:47:43;14.20;;;3.80;;
35576;SDS011;21680;52.400;16.920;2023-04-25T07:50:08;9.70;;;3.60;;
35576;SDS011;21680;52.400;16.920;2023-04-25T07:52:35;9.00;;;3.70;;
35576;SDS011;21680;52.400;16.920;2023-04-25T07:55:00;12.10;;;4.00;;
35576;SDS011;21680;52.400;16.920;2023-04-25T07:57:26;13.20;;;4.30;;
35576;SDS011;21680;52.400;16.920;2023-04-25T07:59:51;13.60;;;3.90;;
35576;SDS011;21680;52.400;16.920;2023-04-25T08:02:17;9.80;;;3.20;;
35576;SDS011;21680;52.400;16.920;2023-04-25T08:04:42;9.90;;;3.70;;
35576;SDS011;21680;52.400;16.920;2023-04-25T08:07:07;15.50;;;4.30;;
35576;SDS011;21680;52.400;16.920;2023-04-25T08:09:32;7.50;;;3.60;;
35576;SDS011;21680;52.400;16.920;2023-04-25T08:12:00;4.80;;;3.60;;
35576;SDS011;21680;52.400;16.920;2023-04-25T08:14:26;10.80;;;4.00;;
35576;SDS011;21680;52.400;16.920;2023-04-25T08:16:52;10.70;;;3.20;;
35576;SDS011;21680;52.400;16.920;2023-04-25T08:19:17;9.80;;;3.50;;
35576;SDS011;21680;52.400;16.920;2023-04-25T08:21:42;8.60;;;3.90;;
35576;SDS011;21680;52.400;16.920;2023-04-25T08:24:07;9.70;;;3.60;;
35576;SDS011;21680;52.400;16.920;2023-04-25T08:26:33;6.60;;;3.00;;
35576;SDS011;21680;52.400;16.920;2023-04-25T08:28:59;7.80;;;3.70;;
35576;SDS011;21680;52.400;16.920;2023-04-25T08:31:25;7.30;;;3.20;;
35576;SDS011;21680;52.400;16.920;2023-04-25T08:33:50;11.80;;;3.80;;
35576;SDS011;21680;52.400;16.920;2023-04-25T08:36:16;24.10;;;5.70;;
35576;SDS011;21680;52.400;16.920;2023-04-25T08:38:42;11.40;;;3.80;;
35576;SDS011;21680;52.400;16.920;2023-04-25T08:41:07;8.40;;;3.60;;
35576;SDS011;21680;52.400;16.920;2023-04-25T08:43:36;8.70;;;3.60;;
35576;SDS011;21680;52.400;16.920;2023-04-25T08:46:02;24.10;;;4.60;;
35576;SDS011;21680;52.400;16.920;2023-04-25T08:48:28;16.50;;;4.30;;
35576;SDS011;21680;52.400;16.920;2023-04-25T08:50:57;23.40;;;4.00;;
35576;SDS011;21680;52.400;16.920;2023-04-25T08:53:26;13.30;;;4.00;;
35576;SDS011;21680;52.400;16.920;2023-04-25T08:55:53;5.70;;;2.80;;
35576;SDS011;21680;52.400;16.920;2023-04-25T08:58:20;14.80;;;3.60;;
35576;SDS011;21680;52.400;16.920;2023-04-25T09:00:46;22.30;;;3.90;;
35576;SDS011;21680;52.400;16.920;2023-04-25T09:03:13;19.90;;;4.10;;
35576;SDS011;21680;52.400;16.920;2023-04-25T09:05:39;14.30;;;4.20;;
35576;SDS011;21680;52.400;16.920;2023-04-25T09:08:05;8.80;;;3.30;;
35576;SDS011;21680;52.400;16.920;2023-04-25T09:10:32;9.70;;;3.70;;
35576;SDS011;21680;52.400;16.920;2023-04-25T09:13:08;24.80;;;4.60;;
35576;SDS011;21680;52.400;16.920;2023-04-25T09:18:29;12.60;;;3.90;;
35576;SDS011;21680;52.400;16.920;2023-04-25T09:21:09;11.20;;;3.50;;
35576;SDS011;21680;52.400;16.920;2023-04-25T09:23:39;26.60;;;4.20;;
35576;SDS011;21680;52.400;16.920;2023-04-25T09:26:07;10.20;;;3.10;;
35576;SDS011;21680;52.400;16.920;2023-04-25T09:28:33;11.10;;;3.80;;
35576;SDS011;21680;52.400;16.920;2023-04-25T09:31:00;12.80;;;3.40;;
35576;SDS011;21680;52.400;16.920;2023-04-25T09:33:29;11.30;;;3.40;;
35576;SDS011;21680;52.400;16.920;2023-04-25T09:38:30;40.40;;;5.50;;
35576;SDS011;21680;52.400;16.920;2023-04-25T09:40:58;28.40;;;4.30;;
35576;SDS011;21680;52.400;16.920;2023-04-25T09:43:23;7.70;;;3.10;;
35576;SDS011;21680;52.400;16.920;2023-04-25T09:45:50;7.20;;;3.10;;
35576;SDS011;21680;52.400;16.920;2023-04-25T09:48:22;7.80;;;2.80;;
35576;SDS011;21680;52.400;16.920;2023-04-25T09:51:08;18.40;;;3.10;;
35576;SDS011;21680;52.400;16.920;2023-04-25T09:53:36;14.80;;;3.40;;
35576;SDS011;21680;52.400;16.920;2023-04-25T09:56:09;9.90;;;2.80;;
35576;SDS011;21680;52.400;16.920;2023-04-25T09:58:37;6.60;;;2.60;;
35576;SDS011;21680;52.400;16.920;2023-04-25T10:01:04;10.40;;;3.00;;
35576;SDS011;21680;52.400;16.920;2023-04-25T10:03:33;9.30;;;2.50;;
35576;SDS011;21680;52.400;16.920;2023-04-25T10:06:01;9.50;;;2.80;;
35576;SDS011;21680;52.400;16.920;2023-04-25T10:08:32;4.70;;;2.90;;
35576;SDS011;21680;52.400;16.920;2023-04-25T10:11:02;5.90;;;2.50;;
35576;SDS011;21680;52.400;16.920;2023-04-25T10:15:58;9.30;;;2.70;;
35576;SDS011;21680;52.400;16.920;2023-04-25T10:18:26;9.20;;;3.10;;
35576;SDS011;21680;52.400;16.920;2023-04-25T10:20:53;20.10;;;4.40;;
35576;SDS011;21680;52.400;16.920;2023-04-25T10:23:21;10.80;;;3.10;;
35576;SDS011;21680;52.400;16.920;2023-04-25T10:25:47;10.30;;;3.10;;
35576;SDS011;21680;52.400;16.920;2023-04-25T10:28:14;24.00;;;3.10;;
35576;SDS011;21680;52.400;16.920;2023-04-25T10:30:56;76.40;;;7.30;;
35576;SDS011;21680;52.400;16.920;2023-04-25T10:36:14;26.40;;;3.70;;
35576;SDS011;21680;52.400;16.920;2023-04-25T10:38:43;28.40;;;3.30;;
35576;SDS011;21680;52.400;16.920;2023-04-25T10:41:10;19.50;;;4.40;;
35576;SDS011;21680;52.400;16.920;2023-04-25T10:43:40;9.70;;;2.80;;
35576;SDS011;21680;52.400;16.920;2023-04-25T10:48:55;12.70;;;3.70;;
35576;SDS011;21680;52.400;16.920;2023-04-25T10:51:28;9.50;;;2.30;;
35576;SDS011;21680;52.400;16.920;2023-04-25T10:53:58;7.10;;;2.60;;
35576;SDS011;21680;52.400;16.920;2023-04-25T10:56:26;6.90;;;2.40;;
35576;SDS011;21680;52.400;16.920;2023-04-25T10:59:02;4.70;;;2.50;;
35576;SDS011;21680;52.400;16.920;2023-04-25T11:01:28;12.70;;;3.70;;
35576;SDS011;21680;52.400;16.920;2023-04-25T11:04:01;8.10;;;2.60;;
35576;SDS011;21680;52.400;16.920;2023-04-25T11:06:34;10.50;;;2.20;;
35576;SDS011;21680;52.400;16.920;2023-04-25T11:09:14;5.50;;;2.60;;
35576;SDS011;21680;52.400;16.920;2023-04-25T11:11:40;11.30;;;2.60;;
35576;SDS011;21680;52.400;16.920;2023-04-25T11:14:06;6.60;;;2.50;;
35576;SDS011;21680;52.400;16.920;2023-04-25T11:16:32;15.80;;;3.00;;
35576;SDS011;21680;52.400;16.920;2023-04-25T11:18:57;7.60;;;2.50;;
35576;SDS011;21680;52.400;16.920;2023-04-25T11:21:23;7.10;;;2.70;;
35576;SDS011;21680;52.400;16.920;2023-04-25T11:23:51;6.30;;;3.00;;
35576;SDS011;21680;52.400;16.920;2023-04-25T11:26:17;4.40;;;2.50;;
35576;SDS011;21680;52.400;16.920;2023-04-25T11:28:44;7.00;;;2.30;;
35576;SDS011;21680;52.400;16.920;2023-04-25T11:31:12;6.40;;;2.20;;
35576;SDS011;21680;52.400;16.920;2023-04-25T11:33:37;3.60;;;1.90;;
35576;SDS011;21680;52.400;16.920;2023-04-25T11:36:02;18.50;;;3.10;;
35576;SDS011;21680;52.400;16.920;2023-04-25T11:38:29;6.90;;;2.20;;
35576;SDS011;21680;52.400;16.920;2023-04-25T11:40:54;6.40;;;2.10;;
35576;SDS011;21680;52.400;16.920;2023-04-25T11:43:21;14.90;;;3.00;;
35576;SDS011;21680;52.400;16.920;2023-04-25T11:45:50;16.70;;;3.50;;
35576;SDS011;21680;52.400;16.920;2023-04-25T11:48:17;9.20;;;3.60;;
35576;SDS011;21680;52.400;16.920;2023-04-25T11:50:43;5.50;;;2.40;;
35576;SDS011;21680;52.400;16.920;2023-04-25T11:53:08;10.20;;;3.10;;
35576;SDS011;21680;52.400;16.920;2023-04-25T11:55:35;5.70;;;3.10;;
35576;SDS011;21680;52.400;16.920;2023-04-25T11:58:01;8.20;;;2.70;;
35576;SDS011;21680;52.400;16.920;2023-04-25T12:00:28;8.20;;;2.90;;
35576;SDS011;21680;52.400;16.920;2023-04-25T12:02:54;5.90;;;2.90;;
35576;SDS011;21680;52.400;16.920;2023-04-25T12:05:26;5.30;;;2.40;;
35576;SDS011;21680;52.400;16.920;2023-04-25T12:07:54;4.90;;;2.30;;
35576;SDS011;21680;52.400;16.920;2023-04-25T12:10:19;10.30;;;2.70;;
35576;SDS011;21680;52.400;16.920;2023-04-25T12:12:45;7.40;;;2.90;;
35576;SDS011;21680;52.400;16.920;2023-04-25T12:15:16;4.60;;;2.00;;
35576;SDS011;21680;52.400;16.920;2023-04-25T12:17:46;7.40;;;2.10;;
35576;SDS011;21680;52.400;16.920;2023-04-25T12:20:13;3.60;;;1.50;;
35576;SDS011;21680;52.400;16.920;2023-04-25T12:22:41;4.40;;;2.30;;
35576;SDS011;21680;52.400;16.920;2023-04-25T12:25:09;3.60;;;1.70;;
35576;SDS011;21680;52.400;16.920;2023-04-25T12:27:36;4.30;;;2.20;;
35576;SDS011;21680;52.400;16.920;2023-04-25T12:30:02;5.70;;;2.40;;
35576;SDS011;21680;52.400;16.920;2023-04-25T12:32:28;10.10;;;2.70;;
35576;SDS011;21680;52.400;16.920;2023-04-25T12:34:54;9.80;;;2.40;;
35576;SDS011;21680;52.400;16.920;2023-04-25T12:37:19;8.80;;;2.10;;
35576;SDS011;21680;52.400;16.920;2023-04-25T12:39:45;17.70;;;3.20;;
35576;SDS011;21680;52.400;16.920;2023-04-25T12:42:11;3.70;;;2.70;;
35576;SDS011;21680;52.400;16.920;2023-04-25T12:44:37;5.70;;;2.80;;
35576;SDS011;21680;52.400;16.920;2023-04-25T12:47:03;8.80;;;3.40;;
35576;SDS011;21680;52.400;16.920;2023-04-25T12:49:29;6.30;;;2.50;;
35576;SDS011;21680;52.400;16.920;2023-04-25T12:51:54;13.70;;;2.70;;
35576;SDS011;21680;52.400;16.920;2023-04-25T12:54:19;14.90;;;2.90;;
35576;SDS011;21680;52.400;16.920;2023-04-25T12:56:45;10.80;;;2.20;;
35576;SDS011;21680;52.400;16.920;2023-04-25T12:59:11;6.30;;;2.40;;
35576;SDS011;21680;52.400;16.920;2023-04-25T13:01:36;2.80;;;2.00;;
35576;SDS011;21680;52.400;16.920;2023-04-25T13:04:02;4.00;;;1.80;;
35576;SDS011;21680;52.400;16.920;2023-04-25T13:06:27;11.20;;;2.50;;
35576;SDS011;21680;52.400;16.920;2023-04-25T13:08:54;6.50;;;2.40;;
35576;SDS011;21680;52.400;16.920;2023-04-25T13:11:20;27.30;;;3.20;;
35576;SDS011;21680;52.400;16.920;2023-04-25T13:13:45;4.50;;;2.50;;
35576;SDS011;21680;52.400;16.920;2023-04-25T13:16:10;8.90;;;2.30;;
35576;SDS011;21680;52.400;16.920;2023-04-25T13:18:38;54.60;;;6.30;;
35576;SDS011;21680;52.400;16.920;2023-04-25T13:21:04;21.60;;;2.10;;
35576;SDS011;21680;52.400;16.920;2023-04-25T13:23:29;6.70;;;1.90;;
35576;SDS011;21680;52.400;16.920;2023-04-25T13:25:56;5.70;;;1.60;;
35576;SDS011;21680;52.400;16.920;2023-04-25T13:28:25;3.10;;;1.40;;
35576;SDS011;21680;52.400;16.920;2023-04-25T13:30:51;4.30;;;1.30;;
35576;SDS011;21680;52.400;16.920;2023-04-25T13:33:16;2.70;;;1.30;;
35576;SDS011;21680;52.400;16.920;2023-04-25T13:35:42;2.30;;;1.20;;
35576;SDS011;21680;52.400;16.920;2023-04-25T13:38:07;0.90;;;0.70;;
35576;SDS011;21680;52.400;16.920;2023-04-25T13:40:33;7.70;;;1.50;;
35576;SDS011;21680;52.400;16.920;2023-04-25T13:43:01;5.00;;;1.10;;
35576;SDS011;21680;52.400;16.920;2023-04-25T13:45:27;9.60;;;1.30;;
35576;SDS011;21680;52.400;16.920;2023-04-25T13:47:52;6.90;;;1.50;;
35576;SDS011;21680;52.400;16.920;2023-04-25T13:50:17;7.20;;;1.90;;
35576;SDS011;21680;52.400;16.920;2023-04-25T13:52:43;10.70;;;2.10;;
35576;SDS011;21680;52.400;16.920;2023-04-25T13:55:08;6.70;;;2.30;;
35576;SDS011;21680;52.400;16.920;2023-04-25T13:57:35;7.20;;;2.60;;
35576;SDS011;21680;52.400;16.920;2023-04-25T14:00:01;6.20;;;2.90;;
35576;SDS011;21680;52.400;16.920;2023-04-25T14:02:34;7.90;;;3.00;;
35576;SDS011;21680;52.400;16.920;2023-04-25T14:05:00;4.50;;;2.60;;
35576;SDS011;21680;52.400;16.920;2023-04-25T14:07:25;7.30;;;2.80;;
35576;SDS011;21680;52.400;16.920;2023-04-25T14:09:51;7.60;;;3.40;;
35576;SDS011;21680;52.400;16.920;2023-04-25T14:12:16;6.40;;;3.10;;
35576;SDS011;21680;52.400;16.920;2023-04-25T14:14:41;3.90;;;2.80;;
35576;SDS011;21680;52.400;16.920;2023-04-25T14:17:07;7.50;;;3.50;;
35576;SDS011;21680;52.400;16.920;2023-04-25T14:19:33;9.90;;;2.70;;
35576;SDS011;21680;52.400;16.920;2023-04-25T14:21:58;8.20;;;4.40;;
35576;SDS011;21680;52.400;16.920;2023-04-25T14:24:24;5.40;;;2.80;;
35576;SDS011;21680;52.400;16.920;2023-04-25T14:26:50;5.30;;;2.10;;
35576;SDS011;21680;52.400;16.920;2023-04-25T14:29:15;11.00;;;2.40;;
35576;SDS011;21680;52.400;16.920;2023-04-25T14:31:40;3.70;;;1.70;;
35576;SDS011;21680;52.400;16.920;2023-04-25T14:34:06;12.30;;;2.30;;
35576;SDS011;21680;52.400;16.920;2023-04-25T14:36:33;2.80;;;2.00;;
35576;SDS011;21680;52.400;16.920;2023-04-25T14:39:00;3.30;;;2.10;;